Time;durP1;ratioP1;P1;durP2;ratioP2;P2;SDS_P1;SDS_P2;PMS_P1;PMS_P2;Temp;Humidity;BMP_temperature;BMP_pressure;BME280_temperature;BME280_humidity;BME280_pressure;Samples;Min_cycle;Max_cycle;Signal;HPM_P1;HPM_P2
2021/12/31 00:01:21;;;;;;;5.72;0.98;;;;;;;12.58;100.00;99678.84;5023487;28;20161;-82
2021/12/31 00:03:48;;;;;;;3.03;0.82;;;;;;;12.61;100.00;99680.84;5024315;28;20124;-83
2021/12/31 00:06:15;;;;;;;7.00;1.40;;;;;;;12.63;100.00;99689.59;5007425;28;20491;-81
2021/12/31 00:08:42;;;;;;;3.42;1.33;;;;;;;12.65;100.00;99692.78;5022965;28;20107;-82
2021/12/31 00:11:09;;;;;;;4.38;0.93;;;;;;;12.67;100.00;99684.06;5026489;28;20053;-82
2021/12/31 00:13:36;;;;;;;7.70;1.40;;;;;;;12.65;100.00;99684.47;5027092;28;20045;-82
2021/12/31 00:16:03;;;;;;;4.57;1.40;;;;;;;12.68;99.77;99675.34;5022848;28;20822;-81
2021/12/31 00:18:29;;;;;;;8.43;1.52;;;;;;;12.70;99.76;99677.75;5007731;28;20059;-82
2021/12/31 00:20:56;;;;;;;6.45;1.90;;;;;;;12.69;99.64;99682.50;5025745;28;20059;-82
2021/12/31 00:23:25;;;;;;;8.15;2.22;;;;;;;12.68;99.49;99672.56;5018908;28;20047;-82
2021/12/31 00:25:53;;;;;;;6.00;1.77;;;;;;;12.69;99.35;99679.72;5021878;28;20392;-81
2021/12/31 00:28:19;;;;;;;6.63;1.33;;;;;;;12.69;99.34;99687.25;5006563;28;20045;-81
2021/12/31 00:30:52;;;;;;;9.25;2.05;;;;;;;12.69;99.41;99692.81;5023720;28;20067;-82
2021/12/31 00:33:23;;;;;;;8.85;2.15;;;;;;;12.70;99.31;99672.19;5005727;28;20065;-81
2021/12/31 00:35:50;;;;;;;12.13;2.13;;;;;;;12.69;99.25;99681.69;5022403;28;20572;-82
2021/12/31 00:38:17;;;;;;;9.02;2.20;;;;;;;12.69;99.07;99660.28;5023403;28;20072;-82
2021/12/31 00:40:44;;;;;;;16.38;4.82;;;;;;;12.69;99.06;99670.59;5005948;28;20044;-81
2021/12/31 00:43:12;;;;;;;12.13;2.45;;;;;;;12.68;98.79;99667.00;5022712;28;20103;-82
2021/12/31 00:45:41;;;;;;;13.10;3.83;;;;;;;12.70;98.88;99656.34;5019846;28;20080;-82
2021/12/31 00:48:10;;;;;;;17.05;2.70;;;;;;;12.68;98.63;99641.25;5023578;28;20050;-81
2021/12/31 00:50:38;;;;;;;17.33;3.28;;;;;;;12.66;98.38;99647.16;5022208;28;20077;-82
2021/12/31 00:53:06;;;;;;;17.50;3.03;;;;;;;12.66;98.22;99644.38;5022674;28;20049;-82
2021/12/31 00:55:33;;;;;;;13.82;3.72;;;;;;;12.66;98.08;99661.06;5022363;28;20054;-82
2021/12/31 00:57:59;;;;;;;13.48;3.00;;;;;;;12.67;98.13;99662.66;5003508;28;20107;-82
2021/12/31 01:00:27;;;;;;;12.18;3.45;;;;;;;12.67;97.71;99657.09;5022741;28;20450;-82
2021/12/31 01:02:54;;;;;;;15.85;3.70;;;;;;;12.68;97.87;99661.47;4989161;28;20104;-82
2021/12/31 01:05:21;;;;;;;19.02;4.65;;;;;;;12.67;97.84;99667.41;5004493;28;20061;-82
2021/12/31 01:07:48;;;;;;;16.52;3.35;;;;;;;12.65;97.63;99653.13;5022356;28;20037;-82
2021/12/31 01:10:17;;;;;;;17.60;4.78;;;;;;;12.62;97.42;99649.13;5024209;28;20060;-81
2021/12/31 01:12:44;;;;;;;15.73;3.38;;;;;;;12.59;97.19;99669.34;5007602;28;20133;-82
2021/12/31 01:15:20;;;;;;;21.73;3.33;;;;;;;12.56;97.13;99650.66;5022186;28;20041;-82
2021/12/31 01:19:44;;;;;;;17.17;4.30;;;;;;;12.54;96.78;99646.69;5023753;28;22033;-82
2021/12/31 01:20:38;;;;;;;15.13;3.42;;;;;;;12.53;96.85;99634.78;5025845;28;20547;-81
2021/12/31 01:23:08;;;;;;;21.27;3.58;;;;;;;12.55;96.73;99639.97;5006734;28;20140;-81
2021/12/31 01:25:36;;;;;;;23.33;4.15;;;;;;;12.53;96.42;99634.78;5024017;28;20048;-82
2021/12/31 01:28:04;;;;;;;26.10;3.83;;;;;;;12.53;96.51;99640.31;5022510;28;20045;-81
2021/12/31 01:30:31;;;;;;;21.15;5.22;;;;;;;12.51;96.03;99644.66;5023674;28;20045;-82
2021/12/31 01:32:58;;;;;;;22.42;5.72;;;;;;;12.50;96.08;99634.72;5024510;28;20033;-81
2021/12/31 01:35:25;;;;;;;17.33;3.97;;;;;;;12.49;96.23;99652.59;5021031;28;20387;-82
2021/12/31 01:37:51;;;;;;;20.83;4.32;;;;;;;12.47;96.06;99641.84;5020846;28;20041;-82
2021/12/31 01:40:18;;;;;;;16.58;4.38;;;;;;;12.47;96.40;99658.50;5022611;28;20045;-81
2021/12/31 01:42:45;;;;;;;25.17;4.28;;;;;;;12.46;96.27;99651.38;5023582;28;20053;-81
2021/12/31 01:45:17;;;;;;;22.83;7.20;;;;;;;12.48;95.94;99653.75;5021250;28;20052;-82
2021/12/31 01:47:56;;;;;;;19.65;4.55;;;;;;;12.43;95.77;99663.25;5023999;28;20037;-81
2021/12/31 01:50:26;;;;;;;30.55;4.93;;;;;;;12.44;95.74;99677.94;5022935;28;20050;-82
2021/12/31 01:52:53;;;;;;;31.48;5.40;;;;;;;12.45;95.44;99666.44;5024401;28;20041;-82
2021/12/31 01:55:24;;;;;;;21.75;6.05;;;;;;;12.44;95.23;99666.84;5023468;28;20033;-82
2021/12/31 01:57:51;;;;;;;20.38;5.13;;;;;;;12.42;95.27;99656.09;5015382;28;20040;-82
2021/12/31 02:00:18;;;;;;;18.98;3.35;;;;;;;12.43;94.95;99665.22;5023115;28;20057;-81
2021/12/31 02:02:46;;;;;;;20.85;4.45;;;;;;;12.43;95.00;99666.03;5024393;28;20037;-82
2021/12/31 02:05:14;;;;;;;22.05;5.20;;;;;;;12.42;94.84;99681.06;5022516;28;20481;-82
2021/12/31 02:07:41;;;;;;;28.00;5.18;;;;;;;12.42;94.79;99678.31;5023970;28;20461;-82
2021/12/31 02:10:09;;;;;;;15.13;3.45;;;;;;;12.42;94.79;99677.50;5022563;28;20034;-82
2021/12/31 02:12:43;;;;;;;19.85;3.95;;;;;;;12.40;94.99;99679.88;5022808;28;20501;-82
2021/12/31 02:15:10;;;;;;;11.20;2.78;;;;;;;12.39;94.82;99689.38;5022087;28;20041;-81
2021/12/31 02:17:36;;;;;;;15.65;3.30;;;;;;;12.38;94.70;99688.59;5024011;28;20042;-82
2021/12/31 02:20:06;;;;;;;18.75;3.42;;;;;;;12.39;95.02;99689.38;5007074;28;20038;-80
2021/12/31 02:22:42;;;;;;;12.35;2.70;;;;;;;12.38;94.81;99685.81;5024197;28;20041;-81
2021/12/31 02:25:10;;;;;;;28.50;4.28;;;;;;;12.43;95.24;99681.88;5007540;28;20095;-80
2021/12/31 02:27:38;;;;;;;23.80;4.72;;;;;;;12.44;95.26;99675.97;5023352;28;20482;-80
2021/12/31 02:30:07;;;;;;;20.27;4.22;;;;;;;12.43;95.16;99682.69;5023013;28;20405;-80
2021/12/31 02:32:34;;;;;;;23.08;4.90;;;;;;;12.42;94.81;99685.81;5022395;28;20053;-80
2021/12/31 02:35:01;;;;;;;20.17;3.33;;;;;;;12.44;95.11;99683.47;5008465;28;20069;-79
2021/12/31 02:37:29;;;;;;;19.58;4.40;;;;;;;12.43;94.63;99684.66;5022610;28;20128;-80
2021/12/31 02:39:56;;;;;;;11.63;3.00;;;;;;;12.41;94.66;99679.50;5025313;28;20044;-81
2021/12/31 02:42:23;;;;;;;14.10;3.20;;;;;;;12.41;94.52;99676.72;5023912;28;20041;-80
2021/12/31 02:44:51;;;;;;;17.02;3.20;;;;;;;12.39;94.40;99687.38;5010597;28;20041;-80
2021/12/31 02:47:18;;;;;;;11.60;2.97;;;;;;;12.35;94.78;99694.91;5025784;28;20095;-80
2021/12/31 02:49:46;;;;;;;14.65;3.22;;;;;;;12.36;94.52;99685.41;5027436;28;20036;-79
2021/12/31 02:52:14;;;;;;;10.75;3.30;;;;;;;12.38;94.56;99702.47;5027273;28;20041;-80
2021/12/31 02:54:44;;;;;;;13.95;3.38;;;;;;;12.41;94.58;99698.13;5026076;28;20033;-80
2021/12/31 02:57:13;;;;;;;9.80;2.72;;;;;;;12.42;94.54;99700.50;5026797;28;20069;-80
2021/12/31 02:59:41;;;;;;;15.60;4.35;;;;;;;12.43;94.53;99696.56;5027314;28;20393;-80
2021/12/31 03:02:08;;;;;;;17.90;3.58;;;;;;;12.44;94.58;99697.38;5023532;28;20075;-80
2021/12/31 03:04:39;;;;;;;11.68;3.38;;;;;;;12.43;94.40;99679.91;5025463;28;20045;-80
2021/12/31 03:07:09;;;;;;;11.57;3.50;;;;;;;12.43;94.46;99673.56;5025715;28;20132;-80
2021/12/31 03:09:38;;;;;;;14.00;2.28;;;;;;;12.41;94.27;99667.59;5026533;28;20041;-80
2021/12/31 03:12:07;;;;;;;9.52;3.65;;;;;;;12.39;94.32;99661.63;5026705;28;20048;-79
2021/12/31 03:14:37;;;;;;;11.25;2.78;;;;;;;12.38;94.30;99649.72;5025609;28;20128;-80
2021/12/31 03:17:05;;;;;;;14.60;3.10;;;;;;;12.35;94.40;99644.94;5025121;28;20046;-80
2021/12/31 03:19:32;;;;;;;17.35;2.80;;;;;;;12.34;94.40;99648.13;5024337;28;20053;-80
2021/12/31 03:21:58;;;;;;;10.70;2.22;;;;;;;12.34;94.38;99654.44;5024212;28;20124;-80
2021/12/31 03:24:25;;;;;;;15.27;4.78;;;;;;;12.34;94.25;99643.34;5010353;28;20037;-80
2021/12/31 03:26:53;;;;;;;27.45;3.45;;;;;;;12.33;94.29;99644.53;5011463;28;20120;-79
2021/12/31 03:29:21;;;;;;;12.98;3.17;;;;;;;12.32;94.31;99659.59;5024724;28;20458;-80
2021/12/31 03:31:47;;;;;;;17.08;2.63;;;;;;;12.28;94.28;99650.44;5025243;28;20048;-80
2021/12/31 03:34:14;;;;;;;15.82;2.85;;;;;;;12.31;94.19;99651.66;5024781;28;20390;-80
2021/12/31 03:36:42;;;;;;;13.95;2.50;;;;;;;12.30;93.88;99653.63;5028223;28;20047;-80
2021/12/31 03:39:10;;;;;;;11.10;2.22;;;;;;;12.28;94.07;99639.34;5025668;28;20072;-80
2021/12/31 03:41:37;;;;;;;13.43;3.47;;;;;;;12.30;93.91;99648.06;5041797;28;20060;-79
2021/12/31 03:44:06;;;;;;;12.95;3.45;;;;;;;12.33;93.85;99652.06;5025283;28;20060;-79
2021/12/31 03:46:32;;;;;;;7.07;2.08;;;;;;;12.36;93.75;99651.28;5024311;28;20041;-80
2021/12/31 03:49:00;;;;;;;8.95;3.45;;;;;;;12.37;93.67;99648.13;5025531;28;20049;-80
2021/12/31 03:51:26;;;;;;;16.52;2.97;;;;;;;12.36;93.32;99642.97;5026818;28;20048;-79
2021/12/31 03:53:53;;;;;;;16.17;3.15;;;;;;;12.36;93.03;99642.97;5023793;28;20138;-80
2021/12/31 03:56:22;;;;;;;11.90;2.05;;;;;;;12.34;93.17;99650.88;5024685;28;20056;-80
2021/12/31 03:58:49;;;;;;;9.32;2.95;;;;;;;12.31;93.17;99638.53;5024782;28;20041;-80
2021/12/31 04:01:16;;;;;;;11.35;2.03;;;;;;;12.28;93.18;99649.63;5025071;28;20044;-80
2021/12/31 04:03:43;;;;;;;7.85;3.38;;;;;;;12.26;93.20;99646.47;5024358;28;20084;-82
2021/12/31 04:06:09;;;;;;;15.57;2.67;;;;;;;12.26;92.88;99646.47;5025780;28;20037;-82
2021/12/31 04:08:36;;;;;;;10.80;2.42;;;;;;;12.27;92.97;99643.28;5024270;28;20144;-82
2021/12/31 04:11:04;;;;;;;8.82;2.38;;;;;;;12.27;92.89;99653.56;5023452;28;20212;-82
2021/12/31 04:13:31;;;;;;;10.35;2.38;;;;;;;12.30;92.83;99647.28;5023976;28;20033;-83
2021/12/31 04:15:58;;;;;;;11.02;2.92;;;;;;;12.33;92.70;99652.88;5024418;28;20131;-82
2021/12/31 04:18:26;;;;;;;7.78;2.05;;;;;;;12.38;92.67;99651.69;5025450;28;20046;-81
2021/12/31 04:20:56;;;;;;;18.88;2.63;;;;;;;12.42;92.51;99656.09;5007393;28;20073;-82
2021/12/31 04:23:32;;;;;;;12.65;3.33;;;;;;;12.46;92.45;99662.50;5024016;28;20048;-82
2021/12/31 04:25:59;;;;;;;9.05;2.28;;;;;;;12.49;92.21;99660.91;5009216;28;20401;-82
2021/12/31 04:28:27;;;;;;;9.27;2.03;;;;;;;12.51;91.92;99645.47;5025003;28;20471;-82
2021/12/31 04:30:54;;;;;;;17.75;3.17;;;;;;;12.54;92.02;99630.03;5023193;28;20757;-81
2021/12/31 04:33:21;;;;;;;15.38;3.70;;;;;;;12.55;91.39;99657.38;5024065;28;20520;-82
2021/12/31 04:35:48;;;;;;;20.25;5.00;;;;;;;12.58;91.16;99642.75;5024204;28;20041;-81
2021/12/31 04:38:14;;;;;;;13.20;2.83;;;;;;;12.57;91.26;99646.72;5026146;28;20044;-82
2021/12/31 04:40:41;;;;;;;17.05;4.38;;;;;;;12.55;91.20;99649.06;5024725;28;20051;-81
2021/12/31 04:43:08;;;;;;;14.50;2.92;;;;;;;12.53;90.92;99656.97;5024445;28;20112;-82
2021/12/31 04:45:35;;;;;;;13.23;3.00;;;;;;;12.49;90.92;99652.59;5026091;28;20045;-82
2021/12/31 04:48:02;;;;;;;15.50;3.42;;;;;;;12.48;90.60;99637.91;5024666;28;20124;-82
2021/12/31 04:50:29;;;;;;;12.35;2.63;;;;;;;12.49;90.54;99650.63;5023569;28;20462;-81
2021/12/31 04:52:57;;;;;;;23.45;3.88;;;;;;;12.45;90.71;99644.22;5025159;28;20088;-82
2021/12/31 04:55:24;;;;;;;18.52;3.80;;;;;;;12.43;90.41;99649.38;5007487;28;20042;-82
2021/12/31 04:57:51;;;;;;;19.15;3.95;;;;;;;12.43;90.48;99649.38;5023386;28;20042;-82
2021/12/31 05:00:18;;;;;;;12.43;3.65;;;;;;;12.45;90.56;99660.06;5007336;28;20124;-82
2021/12/31 05:02:45;;;;;;;22.40;3.80;;;;;;;12.46;90.49;99651.38;5023862;28;20124;-82
2021/12/31 05:05:12;;;;;;;21.92;3.97;;;;;;;12.47;90.56;99652.19;5007466;28;20128;-82
2021/12/31 05:07:39;;;;;;;12.65;3.83;;;;;;;12.47;90.73;99658.50;5024845;28;20043;-81
2021/12/31 05:10:07;;;;;;;19.45;5.93;;;;;;;12.50;91.00;99663.31;5022735;28;20044;-82
2021/12/31 05:12:36;;;;;;;17.23;4.07;;;;;;;12.53;90.47;99676.41;5025734;28;20484;-82
2021/12/31 05:15:09;;;;;;;25.10;4.25;;;;;;;12.55;90.63;99676.81;5024249;28;20045;-81
2021/12/31 05:17:36;;;;;;;17.02;5.13;;;;;;;12.57;90.82;99682.81;5025095;28;20496;-82
2021/12/31 05:20:04;;;;;;;20.85;3.80;;;;;;;12.59;90.73;99685.19;5005905;28;20049;-82
2021/12/31 05:22:31;;;;;;;24.02;5.18;;;;;;;12.58;90.93;99687.16;5023087;28;20140;-81
2021/12/31 05:24:58;;;;;;;23.88;4.47;;;;;;;12.59;90.75;99705.44;5022329;28;20037;-83
2021/12/31 05:27:24;;;;;;;20.30;4.50;;;;;;;12.58;90.93;99698.28;5024717;28;20112;-82
2021/12/31 05:29:51;;;;;;;24.85;5.93;;;;;;;12.59;90.95;99699.88;5022812;28;20077;-82
2021/12/31 05:32:18;;;;;;;24.45;3.92;;;;;;;12.62;90.65;99692.75;5023437;28;20060;-82
2021/12/31 05:34:45;;;;;;;25.98;5.90;;;;;;;12.62;90.80;99693.56;5022696;28;20041;-83
2021/12/31 05:37:11;;;;;;;18.73;5.07;;;;;;;12.63;90.80;99699.88;5023458;28;20069;-82
2021/12/31 05:39:38;;;;;;;23.55;6.28;;;;;;;12.64;90.58;99718.97;5023622;28;20041;-83
2021/12/31 05:42:05;;;;;;;25.23;5.95;;;;;;;12.65;90.71;99709.47;5024234;28;20041;-82
2021/12/31 05:44:32;;;;;;;22.40;4.93;;;;;;;12.64;90.74;99723.72;5024341;28;20048;-83
2021/12/31 05:46:59;;;;;;;22.15;5.35;;;;;;;12.65;90.66;99709.47;5022787;28;20148;-82
2021/12/31 05:49:27;;;;;;;23.27;4.50;;;;;;;12.65;90.46;99720.56;4991767;28;20052;-82
2021/12/31 05:51:54;;;;;;;23.75;5.78;;;;;;;12.66;90.38;99749.91;5024531;28;20045;-83
2021/12/31 05:54:21;;;;;;;17.88;4.72;;;;;;;12.67;90.58;99743.19;5023580;28;20065;-82
2021/12/31 05:56:48;;;;;;;28.90;7.10;;;;;;;12.68;90.53;99736.44;5022624;28;20048;-82
2021/12/31 05:59:15;;;;;;;23.52;4.50;;;;;;;12.68;90.31;99750.31;5007171;28;20560;-82
2021/12/31 06:01:45;;;;;;;25.45;4.80;;;;;;;12.67;90.27;99751.53;5021872;28;20033;-82
2021/12/31 06:04:12;;;;;;;16.80;4.25;;;;;;;12.64;90.40;99730.06;5024697;28;20030;-82
2021/12/31 06:06:38;;;;;;;28.95;5.63;;;;;;;12.63;90.23;99745.13;5024087;28;20033;-82
2021/12/31 06:09:07;;;;;;;22.38;5.88;;;;;;;12.64;90.11;99730.06;5024071;28;20131;-82
2021/12/31 06:11:34;;;;;;;19.23;3.40;;;;;;;12.66;89.92;99733.25;5025497;28;20073;-81
2021/12/31 06:14:03;;;;;;;16.02;3.97;;;;;;;12.66;90.05;99721.34;5024930;28;20053;-82
2021/12/31 06:16:38;;;;;;;15.68;3.22;;;;;;;12.63;89.84;99745.13;5023833;28;20560;-82
2021/12/31 06:19:07;;;;;;;16.67;6.22;;;;;;;12.60;90.07;99745.88;5027056;28;20045;-82
2021/12/31 06:21:39;;;;;;;11.57;2.75;;;;;;;12.55;90.01;99746.25;5026399;28;20114;-82
2021/12/31 06:24:07;;;;;;;20.73;3.97;;;;;;;12.53;90.16;99745.81;5026397;28;20481;-82
2021/12/31 06:26:34;;;;;;;17.33;4.35;;;;;;;12.50;90.05;99759.66;5025332;28;20037;-83
2021/12/31 06:29:00;;;;;;;18.33;3.38;;;;;;;12.46;90.50;99740.22;5026750;28;20042;-82
2021/12/31 06:31:27;;;;;;;18.45;4.05;;;;;;;12.45;90.47;99755.28;5026673;28;20046;-82
2021/12/31 06:33:54;;;;;;;21.13;3.83;;;;;;;12.44;90.40;99764.78;5028593;28;20069;-82
2021/12/31 06:36:21;;;;;;;18.42;4.80;;;;;;;12.41;90.57;99756.41;5026736;28;20099;-82
2021/12/31 06:38:51;;;;;;;24.70;5.22;;;;;;;12.41;90.43;99764.75;5025235;28;20052;-82
2021/12/31 06:41:20;;;;;;;26.73;5.13;;;;;;;12.39;90.86;99767.13;5026436;28;20057;-82
2021/12/31 06:43:47;;;;;;;13.13;3.90;;;;;;;12.39;90.79;99765.09;5025979;28;20253;-82
2021/12/31 06:46:14;;;;;;;16.52;3.97;;;;;;;12.41;90.70;99750.88;5024995;28;20053;-82
2021/12/31 06:48:41;;;;;;;18.63;3.92;;;;;;;12.42;90.58;99756.03;5026030;28;20543;-82
2021/12/31 06:51:10;;;;;;;26.63;4.70;;;;;;;12.43;90.43;99746.53;5010631;28;20064;-82
2021/12/31 06:53:36;;;;;;;18.75;3.35;;;;;;;12.43;90.40;99752.09;5027463;28;20144;-82
2021/12/31 06:56:03;;;;;;;14.82;3.67;;;;;;;12.45;90.15;99768.34;5026234;28;20045;-82
2021/12/31 06:58:30;;;;;;;21.10;4.43;;;;;;;12.44;90.04;99761.22;5027745;28;20038;-82
2021/12/31 07:00:57;;;;;;;13.13;3.58;;;;;;;12.45;90.04;99751.69;5024493;28;20486;-81
2021/12/31 07:03:24;;;;;;;20.52;4.85;;;;;;;12.42;89.71;99756.03;5026869;28;20041;-82
2021/12/31 07:05:51;;;;;;;22.35;3.55;;;;;;;12.43;89.83;99763.19;5026148;28;20045;-82
2021/12/31 07:08:23;;;;;;;;;;;;;;;12.37;89.25;99761.94;5028164;28;20041;-83
2021/12/31 07:10:49;;;;;;;17.00;4.47;;;;;;;12.38;89.52;99769.09;5025910;28;20372;-82
2021/12/31 07:13:16;;;;;;;11.13;2.40;;;;;;;12.35;89.75;99778.16;5026451;28;20049;-82
2021/12/31 07:15:48;;;;;;;15.13;2.60;;;;;;;12.37;89.59;99786.09;5025496;28;20052;-82
2021/12/31 07:18:19;;;;;;;16.30;4.00;;;;;;;12.37;89.54;99791.66;5026329;28;20034;-82
2021/12/31 07:20:46;;;;;;;12.82;2.90;;;;;;;12.36;89.34;99790.88;5008617;28;20046;-82
2021/12/31 07:23:16;;;;;;;15.65;3.17;;;;;;;12.34;89.54;99820.97;5026977;28;20160;-82
2021/12/31 07:25:43;;;;;;;16.13;3.42;;;;;;;12.35;89.35;99816.22;5022227;28;20152;-82
2021/12/31 07:28:12;;;;;;;14.45;3.45;;;;;;;12.32;89.50;99820.56;5026227;28;20125;-82
2021/12/31 07:30:39;;;;;;;12.25;3.10;;;;;;;12.29;89.50;99821.31;5025173;28;20139;-82
2021/12/31 07:33:21;;;;;;;15.43;3.22;;;;;;;12.27;89.62;99820.09;5027615;28;20048;-82
2021/12/31 07:35:49;;;;;;;13.13;3.50;;;;;;;12.28;89.60;99828.06;5026323;28;20083;-82
2021/12/31 07:38:28;;;;;;;10.40;2.50;;;;;;;12.27;89.95;99825.66;5025532;28;20053;-82
2021/12/31 07:40:55;;;;;;;12.10;5.20;;;;;;;12.29;89.85;99824.09;5026230;28;20048;-82
2021/12/31 07:43:22;;;;;;;16.35;3.13;;;;;;;12.32;89.79;99847.50;5024911;28;20056;-82
2021/12/31 07:45:53;;;;;;;7.93;2.45;;;;;;;12.35;89.65;99860.63;5027322;28;20401;-82
2021/12/31 07:48:21;;;;;;;15.65;3.63;;;;;;;12.34;89.78;99856.28;5002022;28;20042;-82
2021/12/31 07:50:49;;;;;;;11.95;2.67;;;;;;;12.37;89.75;99866.59;5026334;28;20040;-82
2021/12/31 07:53:16;;;;;;;11.68;2.70;;;;;;;12.39;89.56;99867.81;5018777;28;20393;-82
2021/12/31 07:55:43;;;;;;;10.18;2.53;;;;;;;12.42;89.40;99871.81;5007552;28;20055;-83
2021/12/31 07:58:10;;;;;;;16.30;2.63;;;;;;;12.42;89.27;99861.50;5025908;28;20041;-82
2021/12/31 08:00:40;;;;;;;13.45;2.95;;;;;;;12.42;89.16;99861.50;5023808;28;20390;-83
2021/12/31 08:03:07;;;;;;;19.13;3.97;;;;;;;12.43;89.22;99860.34;5027145;28;20068;-82
2021/12/31 08:05:34;;;;;;;12.95;2.92;;;;;;;12.44;88.91;99864.72;5024653;28;20049;-83
2021/12/31 08:08:04;;;;;;;16.27;3.78;;;;;;;12.42;89.00;99889.28;5024546;28;20103;-82
2021/12/31 08:10:33;;;;;;;11.48;2.40;;;;;;;12.38;88.72;99888.44;5025640;28;20485;-82
2021/12/31 08:13:19;;;;;;;14.50;3.40;;;;;;;12.33;88.72;99890.75;5026273;28;20038;-82
2021/12/31 08:15:46;;;;;;;10.70;2.35;;;;;;;12.28;88.60;99900.22;5026106;28;20877;-81
2021/12/31 08:18:13;;;;;;;14.00;3.05;;;;;;;12.24;88.64;99904.91;5008314;28;21917;-82
2021/12/31 08:20:40;;;;;;;10.30;3.78;;;;;;;12.19;88.88;99924.66;5025026;28;20037;-82
2021/12/31 08:23:09;;;;;;;14.80;2.80;;;;;;;12.14;88.85;99922.22;5023498;28;20037;-82
2021/12/31 08:25:39;;;;;;;14.15;2.63;;;;;;;12.11;88.78;99945.16;5024256;28;20041;-82
2021/12/31 08:28:07;;;;;;;19.90;5.03;;;;;;;12.08;88.68;99966.13;5022869;28;20041;-82
2021/12/31 08:30:34;;;;;;;12.65;2.70;;;;;;;12.05;88.79;99969.66;5024984;28;20061;-82
2021/12/31 08:33:01;;;;;;;17.92;3.42;;;;;;;12.06;88.91;99970.47;5027071;28;20106;-82
2021/12/31 08:35:28;;;;;;;19.20;4.32;;;;;;;12.08;88.87;99984.75;5024213;28;20037;-82
2021/12/31 08:37:55;;;;;;;14.80;3.63;;;;;;;12.05;88.85;99986.28;5022280;28;20041;-81
2021/12/31 08:40:22;;;;;;;18.38;3.42;;;;;;;12.06;89.09;99998.19;5007914;28;20041;-83
2021/12/31 08:42:49;;;;;;;21.20;5.50;;;;;;;12.07;88.98;100005.38;5041594;28;20060;-83
2021/12/31 08:45:18;;;;;;;16.17;4.07;;;;;;;12.09;89.22;99995.50;5022596;28;20056;-82
2021/12/31 08:47:45;;;;;;;14.07;2.50;;;;;;;12.13;89.01;100003.84;5024916;28;20213;-82
2021/12/31 08:50:13;;;;;;;9.88;2.63;;;;;;;12.15;89.15;99991.19;5026371;28;20045;-82
2021/12/31 08:52:40;;;;;;;13.48;3.30;;;;;;;12.15;88.97;100005.06;5018413;28;20064;-82
2021/12/31 08:55:09;;;;;;;20.48;3.47;;;;;;;12.14;88.93;100014.59;5024706;28;20048;-82
2021/12/31 08:57:36;;;;;;;19.67;4.15;;;;;;;12.14;88.86;100002.69;5022960;28;20038;-82
2021/12/31 09:00:07;;;;;;;15.90;2.90;;;;;;;12.10;88.47;100002.63;5023476;28;20038;-82
2021/12/31 09:02:39;;;;;;;17.70;3.63;;;;;;;12.13;88.60;100026.03;5024752;28;20057;-83
2021/12/31 09:05:07;;;;;;;15.82;3.17;;;;;;;12.15;88.54;100040.38;5024625;28;20689;-82
2021/12/31 09:07:34;;;;;;;16.65;2.97;;;;;;;12.15;88.34;100018.16;5021645;28;20051;-80
2021/12/31 09:10:02;;;;;;;17.02;2.50;;;;;;;12.16;88.28;100030.84;5005177;28;20088;-81
2021/12/31 09:12:29;;;;;;;17.05;4.20;;;;;;;12.16;88.25;100030.84;5024818;28;20132;-82
2021/12/31 09:14:55;;;;;;;23.48;4.05;;;;;;;12.14;88.18;100039.56;5025197;28;20048;-82
2021/12/31 09:17:22;;;;;;;11.43;2.58;;;;;;;12.14;88.03;100045.13;5025578;28;20495;-81
2021/12/31 09:19:50;;;;;;;15.65;3.17;;;;;;;12.14;87.93;100049.84;5006196;28;20489;-81
2021/12/31 09:22:17;;;;;;;19.38;3.50;;;;;;;12.17;88.07;100065.75;5023253;28;20042;-81
2021/12/31 09:24:48;;;;;;;14.73;3.95;;;;;;;12.17;87.69;100043.56;5024112;28;20508;-81
2021/12/31 09:27:14;;;;;;;18.85;2.67;;;;;;;12.20;87.79;100043.59;5018178;28;20049;-81
2021/12/31 09:29:41;;;;;;;16.90;4.13;;;;;;;12.20;87.27;100060.25;5024320;28;20732;-81
2021/12/31 09:32:08;;;;;;;16.08;3.65;;;;;;;12.23;87.38;100055.97;5023547;28;20072;-81
2021/12/31 09:34:35;;;;;;;15.88;3.10;;;;;;;12.25;87.26;100056.38;5025054;28;20041;-84
2021/12/31 09:37:02;;;;;;;14.57;2.75;;;;;;;12.26;87.15;100057.97;5023465;28;20724;-82
2021/12/31 09:39:29;;;;;;;13.25;3.88;;;;;;;12.27;87.35;100070.69;5024207;28;20141;-83
2021/12/31 09:41:55;;;;;;;19.95;2.83;;;;;;;12.27;86.92;100081.78;5024494;28;20487;-81
2021/12/31 09:44:22;;;;;;;20.48;4.75;;;;;;;12.28;86.82;100088.94;5026152;28;20110;-83
2021/12/31 09:46:50;;;;;;;15.80;3.45;;;;;;;12.31;86.79;100087.41;5023628;28;20046;-82
2021/12/31 09:49:17;;;;;;;12.80;2.72;;;;;;;12.32;86.95;100089.78;5022463;28;20029;-82
2021/12/31 09:51:44;;;;;;;13.88;2.90;;;;;;;12.33;86.68;100098.91;5028433;28;20037;-82
2021/12/31 09:54:12;;;;;;;17.35;3.63;;;;;;;12.36;86.60;100096.22;5014760;28;20049;-81
2021/12/31 09:56:40;;;;;;;18.20;3.90;;;;;;;12.36;86.52;100096.22;5008514;28;20424;-82
2021/12/31 09:59:08;;;;;;;13.43;2.90;;;;;;;12.37;86.60;100089.47;5012682;28;20489;-82
2021/12/31 10:01:52;;;;;;;20.42;4.70;;;;;;;12.37;86.73;100108.91;5030278;28;20099;-82
2021/12/31 10:04:20;;;;;;;16.95;3.95;;;;;;;12.39;86.53;100103.00;5030953;28;20046;-81
2021/12/31 10:07:06;;;;;;;16.92;3.53;;;;;;;12.36;86.28;100109.28;5016304;28;20082;-82
2021/12/31 10:09:38;;;;;;;23.98;6.18;;;;;;;12.37;86.52;100106.13;5028880;28;20041;-83
2021/12/31 10:12:12;;;;;;;15.40;3.47;;;;;;;12.38;86.30;100116.06;5031261;28;20046;-83
2021/12/31 10:14:40;;;;;;;15.52;2.67;;;;;;;12.40;86.05;100124.81;5031906;28;20072;-82
2021/12/31 10:17:08;;;;;;;12.35;3.75;;;;;;;12.41;86.15;100143.09;5013588;28;20135;-82
2021/12/31 10:19:54;;;;;;;11.65;2.63;;;;;;;12.42;85.48;100150.22;5012698;28;20477;-84
2021/12/31 10:22:21;;;;;;;16.52;3.65;;;;;;;12.45;85.58;100154.22;5016293;28;20047;-82
2021/12/31 10:24:48;;;;;;;13.57;3.15;;;;;;;12.46;85.77;100139.19;5032300;28;20528;-82
2021/12/31 10:27:17;;;;;;;21.25;3.78;;;;;;;12.47;85.60;100146.34;5018849;28;20492;-83
2021/12/31 10:29:56;;;;;;;15.48;3.33;;;;;;;12.46;85.03;100144.72;5013806;28;20034;-82
2021/12/31 10:32:29;;;;;;;15.52;3.85;;;;;;;12.47;84.69;100174.13;5031483;28;20430;-82
2021/12/31 10:35:19;;;;;;;19.23;3.95;;;;;;;12.48;84.87;100187.63;5032761;28;20037;-84
2021/12/31 10:37:58;;;;;;;25.40;6.72;;;;;;;12.48;85.17;100198.72;5028868;28;20563;-83
2021/12/31 10:40:36;;;;;;;16.63;4.60;;;;;;;12.47;85.48;100207.44;5008092;28;20037;-83
2021/12/31 10:43:25;;;;;;;13.38;3.85;;;;;;;12.44;84.82;100214.53;5015496;28;20215;-83
2021/12/31 10:46:02;;;;;;;20.23;4.20;;;;;;;12.44;85.36;100231.19;5026254;28;20045;-83
2021/12/31 10:48:49;;;;;;;21.33;4.07;;;;;;;12.44;85.47;100233.97;5003765;28;20196;-83
2021/12/31 10:51:36;;;;;;;15.10;3.67;;;;;;;12.43;85.74;100229.56;4989738;28;20042;-83
2021/12/31 10:54:29;;;;;;;17.58;2.70;;;;;;;12.46;85.62;100248.28;4988443;28;21294;-84
2021/12/31 10:56:57;;;;;;;17.48;3.67;;;;;;;12.53;85.83;100245.59;4972116;28;20243;-82
2021/12/31 10:59:24;;;;;;;16.55;3.95;;;;;;;12.54;85.74;100252.78;4999321;28;20049;-83
2021/12/31 11:01:51;;;;;;;12.57;2.70;;;;;;;12.57;86.12;100257.59;5030346;28;20120;-83
2021/12/31 11:04:21;;;;;;;11.65;2.55;;;;;;;12.57;85.87;100263.16;5024529;28;20067;-85
2021/12/31 11:06:48;;;;;;;14.05;3.10;;;;;;;12.57;85.76;100256.78;5025854;28;20044;-85
2021/12/31 11:09:16;;;;;;;19.42;3.83;;;;;;;12.56;85.30;100272.63;5025514;28;20466;-83
2021/12/31 11:11:44;;;;;;;19.35;4.63;;;;;;;12.58;85.35;100291.69;5024392;28;20061;-82
2021/12/31 11:14:11;;;;;;;18.15;2.97;;;;;;;12.59;85.41;100288.56;5027620;28;20473;-81
2021/12/31 11:16:40;;;;;;;15.90;4.18;;;;;;;12.64;85.49;100288.25;5027758;28;20041;-81
2021/12/31 11:19:11;;;;;;;19.50;2.47;;;;;;;12.67;85.31;100306.16;5024060;28;20053;-80
2021/12/31 11:21:38;;;;;;;21.60;3.60;;;;;;;12.68;85.08;100289.09;5025224;28;20180;-82
2021/12/31 11:24:31;;;;;;;12.57;3.25;;;;;;;12.66;85.14;100308.13;5028364;28;20083;-83
2021/12/31 11:26:59;;;;;;;18.55;4.53;;;;;;;12.70;85.26;100328.44;5012183;28;20569;-82
2021/12/31 11:29:37;;;;;;;18.77;4.57;;;;;;;12.73;85.23;100321.34;5026657;28;20029;-82
2021/12/31 11:32:05;;;;;;;17.88;2.72;;;;;;;12.78;84.93;100324.63;5025125;28;20052;-83